Time;durP1;ratioP1;P1;durP2;ratioP2;P2;SDS_P1;SDS_P2;PMS_P1;PMS_P2;Temp;Humidity;BMP_temperature;BMP_pressure;BME280_temperature;BME280_humidity;BME280_pressure;Samples;Min_cycle;Max_cycle;Signal;HPM_P1;HPM_P2
2021/07/06 00:02:00;;;;;;;0.85;0.47;;;24.00;56.00;;;;;;6318341;28;20020;-66
2021/07/06 00:05:01;;;;;;;1.35;0.40;;;24.00;56.00;;;;;;6318142;28;20032;-66
2021/07/06 00:08:02;;;;;;;0.40;0.35;;;24.00;56.00;;;;;;6318407;28;20028;-66
2021/07/06 00:11:03;;;;;;;0.40;0.40;;;24.10;56.10;;;;;;6317793;28;20024;-66
2021/07/06 00:14:04;;;;;;;0.40;0.40;;;24.00;56.00;;;;;;6317920;28;20028;-66
2021/07/06 00:17:05;;;;;;;0.57;0.47;;;24.00;56.00;;;;;;6318298;28;20548;-66
2021/07/06 00:20:08;;;;;;;0.60;0.50;;;24.00;56.00;;;;;;6330041;28;20035;-66
2021/07/06 00:23:09;;;;;;;0.57;0.40;;;24.00;56.10;;;;;;6341825;28;20020;-65
2021/07/06 00:26:10;;;;;;;0.65;0.40;;;24.00;56.00;;;;;;6343113;28;20016;-65
2021/07/06 00:29:10;;;;;;;0.30;0.30;;;24.00;56.00;;;;;;6343127;28;20024;-66
2021/07/06 00:32:11;;;;;;;0.30;0.30;;;24.00;56.00;;;;;;6318636;28;20528;-66
2021/07/06 00:35:11;;;;;;;0.40;0.40;;;24.10;56.10;;;;;;6316072;28;20016;-66
2021/07/06 00:38:13;;;;;;;0.60;0.40;;;24.00;56.00;;;;;;6317204;28;20093;-66
2021/07/06 00:41:13;;;;;;;0.90;0.50;;;24.00;56.00;;;;;;6317123;28;20031;-66
2021/07/06 00:44:16;;;;;;;0.35;0.35;;;24.00;56.00;;;;;;6316949;28;20024;-66
2021/07/06 00:47:36;;;;;;;0.50;0.50;;;24.00;56.00;;;;;;6317627;28;20020;-67
2021/07/06 00:50:37;;;;;;;0.60;0.50;;;24.00;56.00;;;;;;6316816;28;20035;-65
2021/07/06 00:53:38;;;;;;;0.63;0.60;;;24.00;56.00;;;;;;6316901;28;20434;-66
2021/07/06 00:56:39;;;;;;;0.43;0.43;;;24.00;56.00;;;;;;6316972;28;20035;-65
2021/07/06 00:59:40;;;;;;;0.50;0.50;;;24.00;56.00;;;;;;6315462;28;20633;-66
2021/07/06 01:02:41;;;;;;;0.50;0.50;;;24.00;56.00;;;;;;6316817;28;20073;-65
2021/07/06 01:05:41;;;;;;;0.40;0.40;;;24.00;56.00;;;;;;6325931;28;20076;-65
2021/07/06 01:08:45;;;;;;;0.52;0.43;;;24.00;56.00;;;;;;6342377;28;20028;-65
2021/07/06 01:11:48;;;;;;;0.82;0.50;;;24.00;56.00;;;;;;6342101;28;20095;-66
2021/07/06 01:14:48;;;;;;;0.60;0.60;;;24.00;56.00;;;;;;6341810;28;20027;-66
2021/07/06 01:18:11;;;;;;;0.45;0.45;;;24.00;56.00;;;;;;6340317;28;20023;-66
2021/07/06 01:21:13;;;;;;;0.77;0.55;;;24.00;56.00;;;;;;6331592;28;20111;-66
2021/07/06 01:24:13;;;;;;;0.93;0.70;;;24.00;56.00;;;;;;6316612;28;20511;-66
2021/07/06 01:27:14;;;;;;;0.60;0.50;;;24.00;56.00;;;;;;6335009;28;20016;-66
2021/07/06 01:30:17;;;;;;;0.52;0.40;;;24.00;56.00;;;;;;6340478;28;20650;-66
2021/07/06 01:33:27;;;;;;;0.77;0.50;;;24.00;56.00;;;;;;6314992;28;20477;-66
2021/07/06 01:36:28;;;;;;;0.40;0.40;;;24.00;56.00;;;;;;6325426;28;20531;-66
2021/07/06 01:39:29;;;;;;;0.50;0.40;;;24.00;56.10;;;;;;6328661;28;20038;-66
2021/07/06 01:42:30;;;;;;;0.68;0.50;;;24.00;56.10;;;;;;6315250;28;20111;-66
2021/07/06 01:45:31;;;;;;;0.40;0.40;;;24.00;56.10;;;;;;6315436;28;20035;-65
2021/07/06 01:48:31;;;;;;;1.30;0.50;;;24.10;56.20;;;;;;6316212;28;20566;-66
2021/07/06 01:51:32;;;;;;;1.10;0.60;;;24.00;56.10;;;;;;6315831;28;20035;-66
2021/07/06 01:54:33;;;;;;;0.68;0.40;;;24.00;56.10;;;;;;6315516;28;20048;-66
2021/07/06 01:57:33;;;;;;;0.88;0.60;;;24.00;56.10;;;;;;6315695;28;20028;-66
2021/07/06 02:00:40;;;;;;;1.27;0.50;;;24.00;56.10;;;;;;6314820;28;20120;-66
2021/07/06 02:03:41;;;;;;;0.50;0.50;;;24.00;56.10;;;;;;6315800;28;20404;-66
2021/07/06 02:06:42;;;;;;;0.68;0.50;;;24.00;56.10;;;;;;6315410;28;20024;-66
2021/07/06 02:09:43;;;;;;;0.50;0.50;;;24.00;56.10;;;;;;6315142;28;20031;-66
2021/07/06 02:12:44;;;;;;;0.50;0.50;;;24.00;56.10;;;;;;6315113;28;20047;-66
2021/07/06 02:15:45;;;;;;;0.55;0.52;;;24.00;56.10;;;;;;6315742;28;20070;-65
2021/07/06 02:18:46;;;;;;;0.50;0.50;;;24.00;56.10;;;;;;6336875;28;20031;-66
2021/07/06 02:21:46;;;;;;;1.30;0.40;;;24.00;56.10;;;;;;6334921;28;20020;-65
2021/07/06 02:24:47;;;;;;;0.50;0.50;;;24.00;56.10;;;;;;6315022;28;20047;-66
2021/07/06 02:27:48;;;;;;;0.45;0.40;;;24.00;56.10;;;;;;6314826;28;20046;-65
2021/07/06 02:30:50;;;;;;;0.55;0.50;;;24.00;56.20;;;;;;6314856;28;20028;-66
2021/07/06 02:33:50;;;;;;;0.52;0.47;;;24.00;56.10;;;;;;6313687;28;20035;-67
2021/07/06 02:36:51;;;;;;;0.40;0.40;;;24.00;56.10;;;;;;6314843;28;20388;-66
2021/07/06 02:39:51;;;;;;;0.40;0.40;;;24.10;56.20;;;;;;6313600;28;20024;-66
2021/07/06 02:42:53;;;;;;;0.43;0.40;;;24.00;56.10;;;;;;6325206;28;20027;-66
2021/07/06 02:45:54;;;;;;;0.52;0.50;;;24.00;56.10;;;;;;6339660;28;20609;-65
2021/07/06 02:48:54;;;;;;;0.80;0.50;;;24.00;56.10;;;;;;6321534;28;20039;-66
2021/07/06 02:51:55;;;;;;;0.40;0.40;;;24.00;56.10;;;;;;6314496;28;20081;-66
2021/07/06 02:54:55;;;;;;;0.73;0.60;;;24.00;56.20;;;;;;6314440;28;20048;-66
2021/07/06 02:57:56;;;;;;;0.50;0.50;;;24.00;56.20;;;;;;6314348;28;20052;-66
2021/07/06 03:00:57;;;;;;;0.40;0.40;;;24.00;56.10;;;;;;6314485;28;20046;-66
2021/07/06 03:03:57;;;;;;;0.45;0.40;;;24.00;56.20;;;;;;6314394;28;20089;-66
2021/07/06 03:06:58;;;;;;;0.85;0.65;;;24.00;56.10;;;;;;6314647;28;20020;-66
2021/07/06 03:10:10;;;;;;;0.85;0.55;;;24.00;56.20;;;;;;6313077;28;20165;-66
2021/07/06 03:13:11;;;;;;;0.32;0.32;;;24.00;56.10;;;;;;6317798;28;20016;-66
2021/07/06 03:16:12;;;;;;;1.63;0.50;;;24.00;56.10;;;;;;6319632;28;20048;-66
2021/07/06 03:19:13;;;;;;;0.40;0.38;;;24.00;56.20;;;;;;6319336;28;20668;-65
2021/07/06 03:22:13;;;;;;;0.50;0.43;;;24.00;56.20;;;;;;6319743;28;20035;-66
2021/07/06 03:25:17;;;;;;;0.70;0.50;;;24.00;56.10;;;;;;6317568;28;20421;-66
2021/07/06 03:28:18;;;;;;;0.50;0.50;;;24.00;56.20;;;;;;6319389;28;20031;-65
2021/07/06 03:31:19;;;;;;;0.60;0.55;;;24.00;56.20;;;;;;6319051;28;20020;-66
2021/07/06 03:34:20;;;;;;;0.47;0.40;;;24.00;56.20;;;;;;6330399;28;20028;-65
2021/07/06 03:37:20;;;;;;;0.60;0.50;;;24.00;56.20;;;;;;6342969;28;20047;-66
2021/07/06 03:40:21;;;;;;;0.47;0.47;;;24.00;56.20;;;;;;6344161;28;20135;-66
2021/07/06 03:43:22;;;;;;;0.85;0.57;;;24.00;56.20;;;;;;6342151;28;20095;-65
2021/07/06 03:46:26;;;;;;;0.93;0.52;;;24.10;56.30;;;;;;6317338;28;20115;-66
2021/07/06 03:49:26;;;;;;;0.40;0.40;;;24.00;56.20;;;;;;6318997;28;20027;-66
2021/07/06 03:52:28;;;;;;;0.60;0.50;;;24.00;56.20;;;;;;6318359;28;20028;-66
2021/07/06 03:55:28;;;;;;;0.70;0.70;;;24.00;56.20;;;;;;6318418;28;20044;-66
2021/07/06 03:58:29;;;;;;;0.68;0.50;;;24.00;56.20;;;;;;6318019;28;20714;-66
2021/07/06 04:01:30;;;;;;;0.77;0.60;;;24.00;56.20;;;;;;6318557;28;20028;-66
2021/07/06 04:04:31;;;;;;;0.50;0.50;;;24.00;56.20;;;;;;6317947;28;20027;-66
2021/07/06 04:07:32;;;;;;;0.50;0.43;;;24.00;56.30;;;;;;6318402;28;20043;-66
2021/07/06 04:10:33;;;;;;;0.60;0.55;;;24.00;56.20;;;;;;6333742;28;20548;-66
2021/07/06 04:13:34;;;;;;;0.52;0.47;;;24.10;56.30;;;;;;6343389;28;20028;-66
2021/07/06 04:16:35;;;;;;;0.50;0.40;;;24.00;56.20;;;;;;6317780;28;20097;-66
2021/07/06 04:19:35;;;;;;;0.50;0.50;;;24.00;56.20;;;;;;6318228;28;20039;-66
2021/07/06 04:22:37;;;;;;;0.40;0.40;;;24.00;56.20;;;;;;6318114;28;20039;-66
2021/07/06 04:25:37;;;;;;;0.40;0.40;;;24.00;56.20;;;;;;6331936;28;20028;-66
2021/07/06 04:28:38;;;;;;;0.40;0.40;;;24.00;56.20;;;;;;6343689;28;20020;-66
2021/07/06 04:31:39;;;;;;;0.30;0.30;;;24.00;56.20;;;;;;6343167;28;20034;-66
2021/07/06 04:34:39;;;;;;;0.70;0.63;;;24.00;56.20;;;;;;6336127;28;20016;-66
2021/07/06 04:37:41;;;;;;;0.55;0.55;;;24.00;56.20;;;;;;6317742;28;20024;-66
2021/07/06 04:40:41;;;;;;;0.40;0.40;;;24.00;56.20;;;;;;6331076;28;20031;-70
2021/07/06 04:43:42;;;;;;;0.47;0.43;;;24.00;56.20;;;;;;6342976;28;20035;-66
2021/07/06 04:46:43;;;;;;;0.50;0.47;;;24.00;56.20;;;;;;6321353;28;20032;-66
2021/07/06 04:49:43;;;;;;;0.38;0.38;;;24.00;56.30;;;;;;6317319;28;20024;-66
2021/07/06 04:52:47;;;;;;;0.40;0.30;;;24.00;56.30;;;;;;6315976;28;20067;-66
2021/07/06 04:55:47;;;;;;;0.32;0.32;;;24.00;56.20;;;;;;6329082;28;20116;-66
2021/07/06 04:58:48;;;;;;;0.40;0.40;;;24.00;56.30;;;;;;6342402;28;20031;-66
2021/07/06 05:01:50;;;;;;;0.38;0.38;;;24.00;56.30;;;;;;6312347;28;20074;-66
2021/07/06 05:04:51;;;;;;;0.40;0.40;;;24.00;56.20;;;;;;6295788;28;20027;-66
2021/07/06 05:07:53;;;;;;;0.35;0.32;;;24.00;56.30;;;;;;6317886;28;20629;-66
2021/07/06 05:10:56;;;;;;;0.50;0.50;;;24.00;56.20;;;;;;6323256;28;20019;-66
2021/07/06 05:13:57;;;;;;;0.50;0.50;;;24.00;56.20;;;;;;6342259;28;20115;-66
2021/07/06 05:16:57;;;;;;;0.45;0.45;;;24.00;56.20;;;;;;6341311;28;20060;-66
2021/07/06 05:19:58;;;;;;;0.50;0.35;;;24.00;56.30;;;;;;6341961;28;20023;-65
2021/07/06 05:22:58;;;;;;;0.50;0.47;;;24.10;56.30;;;;;;6341840;28;20031;-66
2021/07/06 05:25:59;;;;;;;0.28;0.28;;;24.00;56.30;;;;;;6336622;28;20020;-66
2021/07/06 05:28:59;;;;;;;0.30;0.30;;;24.00;56.20;;;;;;6316484;28;20099;-66
2021/07/06 05:32:01;;;;;;;0.50;0.43;;;24.00;56.30;;;;;;6316159;28;20646;-66
2021/07/06 05:35:02;;;;;;;0.63;0.40;;;24.00;56.30;;;;;;6315693;28;20039;-66
2021/07/06 05:38:03;;;;;;;0.60;0.50;;;24.10;56.30;;;;;;6315399;28;20526;-66
2021/07/06 05:41:06;;;;;;;0.77;0.50;;;24.00;56.20;;;;;;6316380;28;20162;-66
2021/07/06 05:44:08;;;;;;;0.40;0.40;;;24.00;56.30;;;;;;6316033;28;20554;-66
2021/07/06 05:47:08;;;;;;;0.32;0.32;;;24.00;56.30;;;;;;6326549;28;20020;-66
2021/07/06 05:50:11;;;;;;;0.40;0.40;;;24.00;56.30;;;;;;6341524;28;20020;-66
2021/07/06 05:53:12;;;;;;;0.40;0.40;;;24.00;56.30;;;;;;6334051;28;20031;-66
2021/07/06 05:56:14;;;;;;;0.30;0.30;;;24.10;56.30;;;;;;6315653;28;20496;-66
2021/07/06 05:59:15;;;;;;;0.40;0.40;;;24.00;56.30;;;;;;6313976;28;20039;-66
2021/07/06 06:02:15;;;;;;;0.43;0.43;;;24.00;56.30;;;;;;6314746;28;20084;-66
2021/07/06 06:05:16;;;;;;;0.32;0.32;;;24.00;56.30;;;;;;6344076;28;20038;-66
2021/07/06 06:08:16;;;;;;;0.30;0.30;;;24.00;56.30;;;;;;6325954;28;20020;-66
2021/07/06 06:11:17;;;;;;;0.50;0.30;;;24.00;56.30;;;;;;6318297;28;20065;-66
2021/07/06 06:14:18;;;;;;;0.45;0.32;;;24.00;56.30;;;;;;6318521;28;20687;-66
2021/07/06 06:17:19;;;;;;;0.60;0.50;;;24.00;56.30;;;;;;6318835;28;20038;-66
2021/07/06 06:20:20;;;;;;;0.47;0.30;;;24.00;56.30;;;;;;6312159;28;20059;-66
2021/07/06 06:23:20;;;;;;;0.47;0.40;;;24.00;56.30;;;;;;6316914;28;20028;-66
2021/07/06 06:26:21;;;;;;;0.30;0.30;;;24.00;56.30;;;;;;6316961;28;20020;-66
2021/07/06 06:29:21;;;;;;;0.50;0.45;;;24.00;56.30;;;;;;6316951;28;20076;-65
2021/07/06 06:32:23;;;;;;;0.50;0.40;;;24.00;56.30;;;;;;6317020;28;20024;-66
2021/07/06 06:35:24;;;;;;;0.40;0.40;;;24.00;56.30;;;;;;6316682;28;20220;-66
2021/07/06 06:38:24;;;;;;;0.30;0.30;;;24.00;56.30;;;;;;6331581;28;20023;-66
2021/07/06 06:41:25;;;;;;;0.65;0.52;;;24.00;56.30;;;;;;6323093;28;20024;-66
2021/07/06 06:44:26;;;;;;;0.30;0.30;;;24.00;56.30;;;;;;6314375;28;20076;-66
2021/07/06 06:47:26;;;;;;;0.30;0.30;;;24.00;56.30;;;;;;6335670;28;20118;-66
2021/07/06 06:50:27;;;;;;;0.32;0.32;;;24.10;56.30;;;;;;6321526;28;20120;-66
2021/07/06 06:53:27;;;;;;;0.50;0.30;;;24.10;57.00;;;;;;6315778;28;20531;-66
2021/07/06 06:56:31;;;;;;;0.35;0.35;;;24.10;56.20;;;;;;6315914;28;20392;-66
2021/07/06 06:59:32;;;;;;;1.00;0.30;;;24.10;56.20;;;;;;6320836;28;20146;-67
2021/07/06 07:02:33;;;;;;;0.63;0.52;;;24.10;56.30;;;;;;6313963;28;20031;-67
2021/07/06 07:05:33;;;;;;;0.50;0.50;;;24.10;56.40;;;;;;6314333;28;20089;-66
2021/07/06 07:08:34;;;;;;;0.85;0.40;;;24.10;56.60;;;;;;6314413;28;20028;-67
2021/07/06 07:11:34;;;;;;;3.35;0.60;;;24.10;56.80;;;;;;6314940;28;20157;-66
2021/07/06 07:14:36;;;;;;;2.35;0.55;;;24.10;56.90;;;;;;6314247;28;20055;-67
2021/07/06 07:17:37;;;;;;;1.42;0.68;;;24.10;56.90;;;;;;6314333;28;20093;-67
2021/07/06 07:20:38;;;;;;;0.77;0.60;;;24.10;56.90;;;;;;6314110;28;20020;-66
2021/07/06 07:23:38;;;;;;;1.25;0.40;;;24.10;57.00;;;;;;6314272;28;20035;-66
2021/07/06 07:26:39;;;;;;;0.55;0.40;;;24.10;56.90;;;;;;6312508;28;20016;-67
2021/07/06 07:29:40;;;;;;;0.50;0.40;;;24.10;57.60;;;;;;6314531;28;20398;-66
2021/07/06 07:32:41;;;;;;;1.00;0.60;;;24.00;56.80;;;;;;6315077;28;20028;-67
2021/07/06 07:35:42;;;;;;;2.20;0.68;;;24.10;56.80;;;;;;6315067;28;20032;-67
2021/07/06 07:38:43;;;;;;;0.68;0.50;;;24.10;57.00;;;;;;6315816;28;20058;-67
2021/07/06 07:41:43;;;;;;;1.70;0.60;;;24.10;57.20;;;;;;6314748;28;20028;-66
2021/07/06 07:44:44;;;;;;;0.93;0.50;;;24.10;57.10;;;;;;6315399;28;20028;-69
2021/07/06 07:47:45;;;;;;;0.60;0.50;;;24.10;57.10;;;;;;6326857;28;20019;-70
2021/07/06 07:50:47;;;;;;;1.05;0.60;;;24.00;56.90;;;;;;6319462;28;20032;-69
2021/07/06 07:53:48;;;;;;;1.90;0.52;;;24.00;56.90;;;;;;6326599;28;20048;-70
2021/07/06 07:56:48;;;;;;;1.23;0.60;;;24.00;56.90;;;;;;6322720;28;20035;-68
2021/07/06 07:59:54;;;;;;;1.55;0.60;;;24.10;56.90;;;;;;6316447;28;20027;-67
2021/07/06 08:02:55;;;;;;;1.70;0.50;;;24.00;56.80;;;;;;6294543;28;20059;-68
2021/07/06 08:05:59;;;;;;;1.33;0.65;;;24.10;56.80;;;;;;6314315;28;20040;-68
2021/07/06 08:09:01;;;;;;;0.50;0.50;;;24.00;56.70;;;;;;6320157;28;20035;-68
2021/07/06 08:12:03;;;;;;;0.40;0.40;;;24.00;56.70;;;;;;6321239;28;20024;-68
2021/07/06 08:15:04;;;;;;;0.80;0.60;;;24.10;56.80;;;;;;6320356;28;20694;-68
2021/07/06 08:18:05;;;;;;;0.60;0.40;;;24.00;56.70;;;;;;6319671;28;20748;-68
2021/07/06 08:21:06;;;;;;;1.65;0.57;;;24.00;56.60;;;;;;6319752;28;20040;-68
2021/07/06 08:24:06;;;;;;;0.63;0.50;;;24.10;56.70;;;;;;6320175;28;20101;-68
2021/07/06 08:27:07;;;;;;;0.73;0.60;;;24.10;56.70;;;;;;6320018;28;20069;-68
2021/07/06 08:30:09;;;;;;;0.80;0.60;;;24.00;56.60;;;;;;6328645;28;20034;-68
2021/07/06 08:33:09;;;;;;;0.40;0.40;;;24.00;56.60;;;;;;6344794;28;20070;-68
2021/07/06 08:36:10;;;;;;;0.40;0.40;;;24.00;56.60;;;;;;6344886;28;20023;-68
2021/07/06 08:39:11;;;;;;;0.50;0.40;;;24.00;56.60;;;;;;6338781;28;20513;-68
2021/07/06 08:42:12;;;;;;;0.50;0.40;;;24.10;56.60;;;;;;6318149;28;20028;-68
2021/07/06 08:45:12;;;;;;;0.57;0.35;;;24.10;56.70;;;;;;6325288;28;20019;-68
2021/07/06 08:48:14;;;;;;;0.40;0.40;;;24.00;56.60;;;;;;6344699;28;20674;-68
2021/07/06 08:51:20;;;;;;;0.65;0.50;;;24.00;56.60;;;;;;6345014;28;20031;-68
2021/07/06 08:54:21;;;;;;;0.40;0.38;;;24.00;56.50;;;;;;6327540;27;20048;-68
2021/07/06 08:57:22;;;;;;;0.35;0.35;;;24.10;56.70;;;;;;6319234;28;20035;-68
2021/07/06 09:00:23;;;;;;;0.32;0.32;;;24.00;56.60;;;;;;6326319;28;20023;-68
2021/07/06 09:03:24;;;;;;;0.65;0.25;;;24.00;56.50;;;;;;6344000;28;20019;-68
2021/07/06 09:06:26;;;;;;;0.45;0.30;;;24.00;56.60;;;;;;6340827;28;20031;-68
2021/07/06 09:09:30;;;;;;;0.50;0.30;;;24.10;56.60;;;;;;6343578;28;20072;-68
2021/07/06 09:12:34;;;;;;;0.40;0.40;;;24.10;56.60;;;;;;6338049;28;20080;-68
2021/07/06 09:15:35;;;;;;;0.30;0.30;;;24.10;56.60;;;;;;6342228;28;20289;-68
2021/07/06 09:18:35;;;;;;;0.40;0.38;;;24.00;56.60;;;;;;6344772;28;20191;-68
2021/07/06 09:21:36;;;;;;;0.50;0.32;;;24.00;56.60;;;;;;6333561;28;20032;-68
2021/07/06 09:24:37;;;;;;;2.10;0.40;;;24.00;56.50;;;;;;6318842;28;20028;-68
2021/07/06 09:27:40;;;;;;;0.52;0.40;;;24.00;56.60;;;;;;6318463;28;20052;-68
2021/07/06 09:30:42;;;;;;;0.57;0.30;;;24.00;56.50;;;;;;6318118;28;20024;-68
2021/07/06 09:33:50;;;;;;;0.47;0.40;;;24.00;56.60;;;;;;6344415;28;20020;-68
2021/07/06 09:36:51;;;;;;;0.40;0.32;;;24.00;56.50;;;;;;6313452;28;20031;-68
2021/07/06 09:39:53;;;;;;;0.32;0.30;;;24.00;56.60;;;;;;6309031;28;20032;-68
2021/07/06 09:43:13;;;;;;;0.57;0.40;;;24.00;56.50;;;;;;6319025;28;20027;-68
2021/07/06 09:46:14;;;;;;;0.93;0.30;;;24.00;56.50;;;;;;6315794;28;20036;-68
2021/07/06 09:49:18;;;;;;;0.40;0.35;;;24.00;56.60;;;;;;6316049;28;20031;-68
2021/07/06 09:52:20;;;;;;;0.50;0.50;;;24.10;56.70;;;;;;6314381;28;20024;-69
2021/07/06 09:55:29;;;;;;;0.40;0.38;;;24.10;56.60;;;;;;6319668;28;20058;-68
2021/07/06 09:58:30;;;;;;;0.40;0.40;;;24.00;56.60;;;;;;6332474;28;20613;-68
2021/07/06 10:01:30;;;;;;;0.30;0.30;;;24.00;56.50;;;;;;6321687;28;20035;-68
2021/07/06 10:04:35;;;;;;;0.40;0.40;;;24.10;56.60;;;;;;6315070;28;20119;-70
2021/07/06 10:07:38;;;;;;;0.38;0.32;;;24.10;56.70;;;;;;6325548;28;20028;-68
2021/07/06 10:10:40;;;;;;;0.30;0.30;;;24.10;56.60;;;;;;6316897;28;20021;-67
2021/07/06 10:13:41;;;;;;;0.40;0.32;;;24.10;56.60;;;;;;6334562;28;20055;-67
2021/07/06 10:16:43;;;;;;;0.20;0.20;;;24.00;56.50;;;;;;6323259;28;20687;-67
2021/07/06 10:19:45;;;;;;;0.50;0.30;;;24.00;56.60;;;;;;6315662;28;20031;-67
2021/07/06 10:22:50;;;;;;;0.30;0.30;;;24.10;56.60;;;;;;6315492;28;20524;-67
2021/07/06 10:25:57;;;;;;;0.40;0.40;;;24.10;56.60;;;;;;6315482;28;20081;-67
2021/07/06 10:28:58;;;;;;;0.30;0.30;;;24.10;56.60;;;;;;6314697;28;20024;-67
2021/07/06 10:31:59;;;;;;;0.30;0.30;;;24.10;56.60;;;;;;6323460;28;20015;-67
2021/07/06 10:35:00;;;;;;;1.45;0.30;;;24.20;56.60;;;;;;6339576;28;20046;-67
2021/07/06 10:38:26;;;;;;;0.30;0.30;;;24.20;56.60;;;;;;6314971;28;20032;-67
2021/07/06 10:41:35;;;;;;;1.13;0.30;;;24.20;56.60;;;;;;6314497;28;20505;-67
2021/07/06 10:44:38;;;;;;;0.50;0.40;;;24.20;56.60;;;;;;6315401;28;20462;-67
2021/07/06 10:47:39;;;;;;;0.65;0.20;;;24.20;56.60;;;;;;6314264;28;20109;-67
2021/07/06 10:50:44;;;;;;;0.55;0.30;;;24.20;56.60;;;;;;6315440;28;20032;-67
2021/07/06 10:54:04;;;;;;;0.82;0.50;;;24.20;56.50;;;;;;6314008;28;20074;-67
2021/07/06 10:57:05;;;;;;;0.30;0.30;;;24.20;56.70;;;;;;6313713;28;20616;-67
2021/07/06 11:00:06;;;;;;;1.02;0.30;;;24.20;56.60;;;;;;6338576;28;20027;-67
2021/07/06 11:03:18;;;;;;;0.65;0.40;;;24.20;56.70;;;;;;6316014;28;20080;-67
2021/07/06 11:06:41;;;;;;;2.92;0.30;;;24.20;56.80;;;;;;6312530;28;20023;-67
2021/07/06 11:09:41;;;;;;;1.45;0.30;;;24.20;56.80;;;;;;6318045;28;20546;-67
2021/07/06 11:12:45;;;;;;;0.50;0.40;;;24.20;56.90;;;;;;6314702;28;20028;-67
2021/07/06 11:15:46;;;;;;;1.80;0.30;;;24.20;56.90;;;;;;6313899;28;20031;-67
2021/07/06 11:18:48;;;;;;;0.85;0.30;;;24.20;56.90;;;;;;6312936;28;20059;-66
2021/07/06 11:22:11;;;;;;;0.35;0.35;;;24.10;56.80;;;;;;6315020;28;20541;-68
2021/07/06 11:25:31;;;;;;;0.30;0.30;;;24.20;56.90;;;;;;6328506;28;20349;-69
2021/07/06 11:28:48;;;;;;;0.98;0.43;;;24.10;56.80;;;;;;6329392;28;20048;-69
2021/07/06 11:32:24;;;;;;;0.40;0.38;;;24.20;56.90;;;;;;6308481;28;20021;-73
2021/07/06 11:35:25;;;;;;;0.63;0.30;;;24.10;56.80;;;;;;6336710;28;20050;-68
2021/07/06 11:38:27;;;;;;;0.52;0.40;;;24.10;56.80;;;;;;6325306;28;20024;-70
2021/07/06 11:41:28;;;;;;;1.50;0.40;;;24.10;56.80;;;;;;6319443;28;20020;-66
2021/07/06 11:44:29;;;;;;;0.50;0.22;;;24.10;56.80;;;;;;6332997;28;20034;-68
2021/07/06 11:47:30;;;;;;;0.57;0.30;;;24.20;56.90;;;;;;6331035;28;20544;-67
2021/07/06 11:50:31;;;;;;;0.95;0.40;;;24.10;56.80;;;;;;6323352;28;20024;-67
2021/07/06 11:53:34;;;;;;;0.25;0.25;;;24.10;56.80;;;;;;6317667;28;20153;-67
2021/07/06 11:56:37;;;;;;;0.50;0.43;;;24.10;56.80;;;;;;6320732;28;20027;-67
2021/07/06 11:59:38;;;;;;;0.30;0.20;;;24.10;56.80;;;;;;6318735;28;20090;-67
2021/07/06 12:02:38;;;;;;;0.32;0.32;;;24.10;56.80;;;;;;6318133;28;20039;-67
2021/07/06 12:05:39;;;;;;;0.45;0.35;;;24.10;56.80;;;;;;6318153;28;20619;-67
2021/07/06 12:08:48;;;;;;;0.32;0.30;;;24.10;56.80;;;;;;6317608;28;20671;-67
2021/07/06 12:11:49;;;;;;;0.40;0.40;;;24.10;56.70;;;;;;6343294;28;20110;-67
2021/07/06 12:14:51;;;;;;;0.55;0.20;;;24.10;56.80;;;;;;6321087;28;20089;-67
2021/07/06 12:17:51;;;;;;;0.38;0.38;;;24.10;56.80;;;;;;6318510;28;20066;-66
2021/07/06 12:21:12;;;;;;;0.88;0.28;;;24.10;56.70;;;;;;6316272;28;20451;-67
2021/07/06 12:24:15;;;;;;;0.30;0.30;;;24.10;56.80;;;;;;6317640;28;20040;-67
2021/07/06 12:27:17;;;;;;;0.70;0.40;;;24.10;56.80;;;;;;6317509;28;20048;-72
2021/07/06 12:30:18;;;;;;;0.45;0.30;;;24.10;56.70;;;;;;6324880;28;20483;-68
2021/07/06 12:33:24;;;;;;;0.45;0.30;;;24.10;56.70;;;;;;6325157;28;20030;-67
2021/07/06 12:36:54;;;;;;;0.35;0.30;;;24.10;56.70;;;;;;6333059;28;20026;-67
2021/07/06 12:40:07;;;;;;;0.40;0.30;;;24.10;56.80;;;;;;6329062;28;20499;-67
2021/07/06 12:43:10;;;;;;;0.45;0.30;;;24.10;56.70;;;;;;6337847;28;20097;-67
2021/07/06 12:46:13;;;;;;;2.05;0.20;;;24.10;56.80;;;;;;6319641;28;20020;-67
2021/07/06 12:49:23;;;;;;;0.22;0.20;;;24.10;56.70;;;;;;6317251;28;20424;-67
2021/07/06 12:52:38;;;;;;;0.20;0.20;;;24.10;56.70;;;;;;6335018;28;20023;-67
2021/07/06 12:55:39;;;;;;;0.47;0.40;;;24.10;56.70;;;;;;6323454;28;20040;-67
2021/07/06 12:58:39;;;;;;;1.02;0.30;;;24.10;56.80;;;;;;6316354;28;20032;-67
2021/07/06 13:01:40;;;;;;;0.50;0.40;;;24.10;56.80;;;;;;6332312;28;20035;-67
2021/07/06 13:04:57;;;;;;;0.35;0.30;;;24.10;56.70;;;;;;6334949;28;20032;-67
2021/07/06 13:07:59;;;;;;;0.30;0.20;;;24.10;56.70;;;;;;6292384;28;20099;-67
2021/07/06 13:11:13;;;;;;;0.35;0.32;;;24.10;56.70;;;;;;6322029;28;20016;-67
2021/07/06 13:14:18;;;;;;;0.28;0.28;;;24.10;56.70;;;;;;6337161;28;20066;-66
2021/07/06 13:17:27;;;;;;;0.43;0.30;;;24.10;56.70;;;;;;6317860;28;20024;-66
2021/07/06 13:20:33;;;;;;;0.50;0.30;;;24.10;56.70;;;;;;6327174;28;20099;-66
2021/07/06 13:23:34;;;;;;;0.30;0.30;;;24.10;56.70;;;;;;6317304;28;20082;-66
2021/07/06 13:26:34;;;;;;;0.70;0.30;;;24.10;56.80;;;;;;6319982;28;20031;-68
2021/07/06 13:29:35;;;;;;;0.40;0.40;;;24.10;56.80;;;;;;6333777;28;20028;-70
2021/07/06 13:32:47;;;;;;;0.52;0.20;;;24.10;56.80;;;;;;6318399;28;20037;-69
2021/07/06 13:35:50;;;;;;;0.98;0.30;;;24.10;56.80;;;;;;6317256;28;20020;-68
2021/07/06 13:38:50;;;;;;;0.25;0.25;;;24.10;56.80;;;;;;6319697;28;20031;-67
2021/07/06 13:41:51;;;;;;;1.70;0.20;;;24.10;56.80;;;;;;6316183;28;20025;-68
2021/07/06 13:44:51;;;;;;;0.30;0.30;;;24.10;56.80;;;;;;6327978;28;20035;-67
2021/07/06 13:47:53;;;;;;;1.00;0.20;;;24.10;56.80;;;;;;6319535;28;20024;-68
2021/07/06 13:50:53;;;;;;;0.20;0.20;;;24.10;56.70;;;;;;6316066;28;20401;-67
2021/07/06 13:53:55;;;;;;;0.50;0.35;;;24.10;56.80;;;;;;6317738;28;20123;-68
2021/07/06 13:56:58;;;;;;;0.40;0.30;;;24.10;56.80;;;;;;6320886;28;20562;-68
2021/07/06 13:59:59;;;;;;;0.20;0.20;;;24.10;56.80;;;;;;6320886;28;20020;-68
2021/07/06 14:03:00;;;;;;;0.30;0.30;;;24.10;56.80;;;;;;6306888;28;20020;-68
2021/07/06 14:06:01;;;;;;;0.20;0.20;;;24.10;56.80;;;;;;6314907;28;20020;-68
2021/07/06 14:09:02;;;;;;;0.30;0.30;;;24.10;56.80;;;;;;6336800;28;20088;-68
2021/07/06 14:12:03;;;;;;;0.20;0.20;;;24.10;56.80;;;;;;6326462;28;20027;-68
2021/07/06 14:15:08;;;;;;;1.27;0.40;;;24.10;56.80;;;;;;6314778;28;20434;-68
2021/07/06 14:18:09;;;;;;;0.20;0.20;;;24.10;56.80;;;;;;6320432;28;20020;-68
2021/07/06 14:21:10;;;;;;;0.30;0.30;;;24.10;56.80;;;;;;6330347;28;20107;-67
2021/07/06 14:24:11;;;;;;;0.22;0.20;;;24.10;56.80;;;;;;6319719;28;20094;-66
2021/07/06 14:27:12;;;;;;;0.30;0.30;;;24.10;56.80;;;;;;6314778;28;20024;-67
2021/07/06 14:30:12;;;;;;;0.20;0.20;;;24.10;56.80;;;;;;6304124;28;20017;-66
2021/07/06 14:33:14;;;;;;;0.32;0.20;;;24.10;56.80;;;;;;6315667;28;20099;-67
2021/07/06 14:36:14;;;;;;;0.57;0.35;;;24.10;56.80;;;;;;6315860;28;20019;-66
2021/07/06 14:39:15;;;;;;;0.22;0.20;;;24.10;56.80;;;;;;6316177;28;20047;-66
2021/07/06 14:42:15;;;;;;;0.30;0.30;;;24.10;56.80;;;;;;6315195;28;20085;-66
2021/07/06 14:45:16;;;;;;;0.40;0.30;;;24.10;56.80;;;;;;6315939;28;20108;-67
2021/07/06 14:48:17;;;;;;;0.40;0.30;;;24.10;56.80;;;;;;6313467;28;20016;-66
2021/07/06 14:51:17;;;;;;;0.38;0.30;;;24.10;56.80;;;;;;6316777;28;20365;-66
2021/07/06 14:54:18;;;;;;;0.30;0.30;;;24.10;56.80;;;;;;6315061;28;20050;-67
2021/07/06 14:57:19;;;;;;;0.30;0.20;;;24.10;56.80;;;;;;6315521;28;20110;-66
2021/07/06 15:00:19;;;;;;;0.30;0.30;;;24.10;56.80;;;;;;6315651;28;20397;-66
2021/07/06 15:03:20;;;;;;;0.20;0.20;;;24.10;56.80;;;;;;6322752;28;20106;-70
2021/07/06 15:06:20;;;;;;;0.30;0.30;;;24.10;56.80;;;;;;6316320;28;20058;-66
2021/07/06 15:09:21;;;;;;;0.30;0.30;;;24.10;56.80;;;;;;6322087;28;20024;-68
2021/07/06 15:12:22;;;;;;;0.43;0.40;;;24.10;56.80;;;;;;6323022;28;20135;-65
2021/07/06 15:15:24;;;;;;;0.38;0.38;;;24.10;56.90;;;;;;6324261;28;20660;-66
2021/07/06 15:18:24;;;;;;;0.55;0.40;;;24.10;56.80;;;;;;6328622;28;20020;-71
2021/07/06 15:21:25;;;;;;;0.30;0.30;;;24.10;56.90;;;;;;6336466;28;20035;-67
2021/07/06 15:24:26;;;;;;;0.30;0.30;;;24.10;56.80;;;;;;6322266;28;20028;-66
2021/07/06 15:27:27;;;;;;;0.30;0.28;;;24.10;56.80;;;;;;6323489;28;20016;-65
2021/07/06 15:30:28;;;;;;;0.20;0.20;;;24.10;56.90;;;;;;6331665;28;20035;-67
2021/07/06 15:33:30;;;;;;;0.65;0.40;;;24.10;56.80;;;;;;6322705;28;20016;-68
2021/07/06 15:36:30;;;;;;;0.30;0.30;;;24.10;56.80;;;;;;6322178;28;20097;-67
2021/07/06 15:39:31;;;;;;;0.45;0.30;;;24.10;56.90;;;;;;6321139;28;20032;-67
2021/07/06 15:42:32;;;;;;;0.63;0.30;;;24.10;56.80;;;;;;6322306;28;20116;-65
2021/07/06 15:45:33;;;;;;;0.30;0.30;;;24.10;56.80;;;;;;6326784;28;20103;-66
2021/07/06 15:48:34;;;;;;;0.20;0.20;;;24.10;56.80;;;;;;6321817;28;20034;-66
2021/07/06 15:51:35;;;;;;;0.30;0.30;;;24.10;56.80;;;;;;6322492;28;20024;-66